sensor_id;sensor_type;location;lat;lon;timestamp;pressure;altitude;pressure_sealevel;temperature;humidity
14689;BME280;7432;48.728;9.154;2023-08-20T00:01:54;147270.56;;;22.43;91.59
14689;BME280;7432;48.728;9.154;2023-08-20T00:04:25;147259.59;;;22.39;91.92
14689;BME280;7432;48.728;9.154;2023-08-20T00:06:52;147265.69;;;22.41;92.05
14689;BME280;7432;48.728;9.154;2023-08-20T00:09:19;147258.38;;;22.38;92.38
14689;BME280;7432;48.728;9.154;2023-08-20T00:11:45;147271.81;;;22.44;92.05
14689;BME280;7432;48.728;9.154;2023-08-20T00:14:15;147274.25;;;22.45;91.99
14689;BME280;7432;48.728;9.154;2023-08-20T00:16:42;147274.25;;;22.45;92.17
14689;BME280;7432;48.728;9.154;2023-08-20T00:19:10;147281.59;;;22.48;92.16
14689;BME280;7432;48.728;9.154;2023-08-20T00:21:41;147284.00;;;22.49;92.27
14689;BME280;7432;48.728;9.154;2023-08-20T00:24:10;147286.47;;;22.50;92.31
14689;BME280;7432;48.728;9.154;2023-08-20T00:26:37;147288.94;;;22.51;92.08
14689;BME280;7432;48.728;9.154;2023-08-20T00:29:04;147287.69;;;22.51;91.84
14689;BME280;7432;48.728;9.154;2023-08-20T00:31:30;147282.81;;;22.49;91.90
14689;BME280;7432;48.728;9.154;2023-08-20T00:33:57;147280.38;;;22.48;91.83
14689;BME280;7432;48.728;9.154;2023-08-20T00:36:23;147268.16;;;22.42;92.33
14689;BME280;7432;48.728;9.154;2023-08-20T00:38:51;147259.59;;;22.39;92.23
14689;BME280;7432;48.728;9.154;2023-08-20T00:41:17;147253.50;;;22.36;92.39
14689;BME280;7432;48.728;9.154;2023-08-20T00:43:44;147237.63;;;22.30;92.70
14689;BME280;7432;48.728;9.154;2023-08-20T00:46:10;147238.84;;;22.30;92.82
14689;BME280;7432;48.728;9.154;2023-08-20T00:48:37;147233.97;;;22.28;92.86
14689;BME280;7432;48.728;9.154;2023-08-20T00:51:03;147229.09;;;22.26;93.14
14689;BME280;7432;48.728;9.154;2023-08-20T00:53:30;147223.00;;;22.24;93.29
14689;BME280;7432;48.728;9.154;2023-08-20T00:55:58;147224.19;;;22.24;93.52
14689;BME280;7432;48.728;9.154;2023-08-20T00:58:24;147216.84;;;22.21;93.93
14689;BME280;7432;48.728;9.154;2023-08-20T01:00:51;147215.66;;;22.21;94.19
14689;BME280;7432;48.728;9.154;2023-08-20T01:03:16;147218.09;;;22.22;94.17
14689;BME280;7432;48.728;9.154;2023-08-20T01:05:48;147210.75;;;22.19;94.52
14689;BME280;7432;48.728;9.154;2023-08-20T01:08:23;147213.22;;;22.20;94.14
14689;BME280;7432;48.728;9.154;2023-08-20T01:10:59;147204.66;;;22.16;94.63
14689;BME280;7432;48.728;9.154;2023-08-20T01:13:27;147193.69;;;22.12;95.05
14689;BME280;7432;48.728;9.154;2023-08-20T01:15:54;147193.69;;;22.12;95.10
14689;BME280;7432;48.728;9.154;2023-08-20T01:18:20;147183.91;;;22.08;95.30
14689;BME280;7432;48.728;9.154;2023-08-20T01:20:51;147182.72;;;22.07;95.40
14689;BME280;7432;48.728;9.154;2023-08-20T01:23:51;147181.50;;;22.07;95.87
14689;BME280;7432;48.728;9.154;2023-08-20T01:26:40;147165.59;;;22.00;95.96
14689;BME280;7432;48.728;9.154;2023-08-20T01:29:10;147172.94;;;22.03;96.30
14689;BME280;7432;48.728;9.154;2023-08-20T01:31:37;147159.50;;;21.98;96.74
14689;BME280;7432;48.728;9.154;2023-08-20T01:34:04;147154.63;;;21.96;96.84
14689;BME280;7432;48.728;9.154;2023-08-20T01:36:31;147152.16;;;21.95;96.90
14689;BME280;7432;48.728;9.154;2023-08-20T01:38:57;147138.75;;;21.89;97.35
14689;BME280;7432;48.728;9.154;2023-08-20T01:41:24;147130.19;;;21.85;97.65
14689;BME280;7432;48.728;9.154;2023-08-20T01:43:50;147135.09;;;21.88;97.44
14689;BME280;7432;48.728;9.154;2023-08-20T01:46:18;147137.53;;;21.89;97.60
14689;BME280;7432;48.728;9.154;2023-08-20T01:48:44;147137.53;;;21.89;97.21
14689;BME280;7432;48.728;9.154;2023-08-20T01:51:11;147139.97;;;21.90;97.74
14689;BME280;7432;48.728;9.154;2023-08-20T01:53:37;147135.09;;;21.88;97.88
14689;BME280;7432;48.728;9.154;2023-08-20T01:56:04;147128.97;;;21.85;97.81
14689;BME280;7432;48.728;9.154;2023-08-20T01:58:30;147120.41;;;21.81;98.03
14689;BME280;7432;48.728;9.154;2023-08-20T02:00:57;147128.97;;;21.85;97.81
14689;BME280;7432;48.728;9.154;2023-08-20T02:03:25;147125.28;;;21.83;97.66
14689;BME280;7432;48.728;9.154;2023-08-20T02:05:51;147119.16;;;21.81;97.77
14689;BME280;7432;48.728;9.154;2023-08-20T02:08:18;147110.66;;;21.77;97.96
14689;BME280;7432;48.728;9.154;2023-08-20T02:10:44;147104.53;;;21.75;98.04
14689;BME280;7432;48.728;9.154;2023-08-20T02:13:10;147104.53;;;21.75;98.16
14689;BME280;7432;48.728;9.154;2023-08-20T02:15:37;147096.00;;;21.71;98.29
14689;BME280;7432;48.728;9.154;2023-08-20T02:18:04;147094.78;;;21.71;98.43
14689;BME280;7432;48.728;9.154;2023-08-20T02:20:32;147085.00;;;21.67;98.39
14689;BME280;7432;48.728;9.154;2023-08-20T02:22:58;147085.00;;;21.67;98.59
14689;BME280;7432;48.728;9.154;2023-08-20T02:25:24;147081.34;;;21.65;98.88
14689;BME280;7432;48.728;9.154;2023-08-20T02:27:51;147067.94;;;21.60;99.04
14689;BME280;7432;48.728;9.154;2023-08-20T02:30:17;147061.84;;;21.57;99.10
14689;BME280;7432;48.728;9.154;2023-08-20T02:32:44;147061.84;;;21.57;99.20
14689;BME280;7432;48.728;9.154;2023-08-20T02:35:10;147052.06;;;21.53;99.49
14689;BME280;7432;48.728;9.154;2023-08-20T02:37:39;147054.50;;;21.54;99.32
14689;BME280;7432;48.728;9.154;2023-08-20T02:40:07;147042.31;;;21.49;99.45
14689;BME280;7432;48.728;9.154;2023-08-20T02:42:35;147030.13;;;21.44;99.54
14689;BME280;7432;48.728;9.154;2023-08-20T02:45:02;147030.13;;;21.44;99.66
14689;BME280;7432;48.728;9.154;2023-08-20T02:47:28;147020.34;;;21.40;99.75
14689;BME280;7432;48.728;9.154;2023-08-20T02:49:54;147016.69;;;21.39;99.64
14689;BME280;7432;48.728;9.154;2023-08-20T02:52:21;147010.59;;;21.36;99.46
14689;BME280;7432;48.728;9.154;2023-08-20T02:54:49;147009.38;;;21.36;99.54
14689;BME280;7432;48.728;9.154;2023-08-20T02:57:15;147010.59;;;21.36;99.46
14689;BME280;7432;48.728;9.154;2023-08-20T02:59:41;147004.50;;;21.34;99.63
14689;BME280;7432;48.728;9.154;2023-08-20T03:02:08;146999.59;;;21.32;99.60
14689;BME280;7432;48.728;9.154;2023-08-20T03:04:34;146989.88;;;21.27;99.37
14689;BME280;7432;48.728;9.154;2023-08-20T03:07:01;146973.97;;;21.21;99.75
14689;BME280;7432;48.728;9.154;2023-08-20T03:09:28;146975.22;;;21.21;99.92
14689;BME280;7432;48.728;9.154;2023-08-20T03:11:55;146973.97;;;21.21;99.93
14689;BME280;7432;48.728;9.154;2023-08-20T03:14:22;146972.75;;;21.20;99.54
14689;BME280;7432;48.728;9.154;2023-08-20T03:16:48;146967.88;;;21.18;99.66
14689;BME280;7432;48.728;9.154;2023-08-20T03:19:15;146955.69;;;21.13;99.96
14689;BME280;7432;48.728;9.154;2023-08-20T03:21:41;146953.25;;;21.12;99.92
14689;BME280;7432;48.728;9.154;2023-08-20T03:24:08;146947.16;;;21.10;100.00
14689;BME280;7432;48.728;9.154;2023-08-20T03:26:34;146934.91;;;21.05;100.00
14689;BME280;7432;48.728;9.154;2023-08-20T03:29:02;146930.03;;;21.03;100.00
14689;BME280;7432;48.728;9.154;2023-08-20T03:31:29;146948.38;;;21.10;99.31
14689;BME280;7432;48.728;9.154;2023-08-20T03:33:55;146919.09;;;20.98;99.68
14689;BME280;7432;48.728;9.154;2023-08-20T03:36:22;146922.72;;;21.00;100.00
14689;BME280;7432;48.728;9.154;2023-08-20T03:38:48;146909.31;;;20.94;100.00
14689;BME280;7432;48.728;9.154;2023-08-20T03:41:14;146894.66;;;20.88;100.00
14689;BME280;7432;48.728;9.154;2023-08-20T03:43:41;146895.88;;;20.89;100.00
14689;BME280;7432;48.728;9.154;2023-08-20T03:46:08;146886.09;;;20.85;100.00
14689;BME280;7432;48.728;9.154;2023-08-20T03:48:35;146880.00;;;20.82;100.00
14689;BME280;7432;48.728;9.154;2023-08-20T03:51:01;146881.25;;;20.83;100.00
14689;BME280;7432;48.728;9.154;2023-08-20T03:53:27;146870.28;;;20.78;100.00
14689;BME280;7432;48.728;9.154;2023-08-20T03:55:54;146866.59;;;20.77;100.00
14689;BME280;7432;48.728;9.154;2023-08-20T03:58:20;146867.81;;;20.77;100.00
14689;BME280;7432;48.728;9.154;2023-08-20T04:00:47;146858.09;;;20.73;100.00
14689;BME280;7432;48.728;9.154;2023-08-20T04:03:14;146848.31;;;20.69;100.00
14689;BME280;7432;48.728;9.154;2023-08-20T04:05:44;146841.00;;;20.66;100.00
14689;BME280;7432;48.728;9.154;2023-08-20T04:08:10;146834.91;;;20.63;100.00
14689;BME280;7432;48.728;9.154;2023-08-20T04:10:42;146843.44;;;20.67;100.00
14689;BME280;7432;48.728;9.154;2023-08-20T04:13:09;146837.34;;;20.64;100.00
14689;BME280;7432;48.728;9.154;2023-08-20T04:15:36;146837.34;;;20.64;100.00
14689;BME280;7432;48.728;9.154;2023-08-20T04:18:02;146843.44;;;20.67;100.00
14689;BME280;7432;48.728;9.154;2023-08-20T04:20:31;146841.00;;;20.66;100.00
14689;BME280;7432;48.728;9.154;2023-08-20T04:22:58;146826.41;;;20.60;100.00
14689;BME280;7432;48.728;9.154;2023-08-20T04:25:24;146819.09;;;20.57;100.00
14689;BME280;7432;48.728;9.154;2023-08-20T04:27:50;146814.16;;;20.55;100.00
14689;BME280;7432;48.728;9.154;2023-08-20T04:30:17;146805.66;;;20.51;100.00
14689;BME280;7432;48.728;9.154;2023-08-20T04:32:43;146814.16;;;20.55;100.00
14689;BME280;7432;48.728;9.154;2023-08-20T04:35:10;146817.84;;;20.56;100.00
14689;BME280;7432;48.728;9.154;2023-08-20T04:37:37;146820.25;;;20.57;100.00
14689;BME280;7432;48.728;9.154;2023-08-20T04:40:05;146817.84;;;20.56;100.00
14689;BME280;7432;48.728;9.154;2023-08-20T04:42:33;146820.25;;;20.57;100.00
14689;BME280;7432;48.728;9.154;2023-08-20T04:44:59;146841.00;;;20.66;100.00
14689;BME280;7432;48.728;9.154;2023-08-20T04:47:26;146843.44;;;20.67;100.00
14689;BME280;7432;48.728;9.154;2023-08-20T04:49:53;146836.13;;;20.64;100.00
14689;BME280;7432;48.728;9.154;2023-08-20T04:52:19;146845.91;;;20.68;99.84
14689;BME280;7432;48.728;9.154;2023-08-20T04:54:47;146855.63;;;20.72;100.00
14689;BME280;7432;48.728;9.154;2023-08-20T04:57:14;146867.81;;;20.77;99.78
14689;BME280;7432;48.728;9.154;2023-08-20T04:59:41;146876.38;;;20.81;99.90
14689;BME280;7432;48.728;9.154;2023-08-20T05:02:10;146899.53;;;20.90;99.33
14689;BME280;7432;48.728;9.154;2023-08-20T05:04:36;146914.16;;;20.96;98.97
14689;BME280;7432;48.728;9.154;2023-08-20T05:07:02;146917.84;;;20.98;98.91
14689;BME280;7432;48.728;9.154;2023-08-20T05:09:29;146927.59;;;21.02;98.78
14689;BME280;7432;48.728;9.154;2023-08-20T05:11:57;146938.59;;;21.06;98.13
14689;BME280;7432;48.728;9.154;2023-08-20T05:14:23;146947.16;;;21.10;98.45
14689;BME280;7432;48.728;9.154;2023-08-20T05:16:49;146956.94;;;21.14;98.11
14689;BME280;7432;48.728;9.154;2023-08-20T05:19:16;146973.97;;;21.21;98.09
14689;BME280;7432;48.728;9.154;2023-08-20T05:21:42;146988.63;;;21.27;97.75
14689;BME280;7432;48.728;9.154;2023-08-20T05:24:09;147000.81;;;21.32;97.51
14689;BME280;7432;48.728;9.154;2023-08-20T05:26:35;147010.59;;;21.36;97.53
14689;BME280;7432;48.728;9.154;2023-08-20T05:29:03;147037.44;;;21.47;97.75
14689;BME280;7432;48.728;9.154;2023-08-20T05:31:29;147058.16;;;21.56;97.37
14689;BME280;7432;48.728;9.154;2023-08-20T05:33:56;147080.13;;;21.65;96.75
14689;BME280;7432;48.728;9.154;2023-08-20T05:36:23;147120.41;;;21.81;95.76
14689;BME280;7432;48.728;9.154;2023-08-20T05:38:49;147138.75;;;21.89;95.84
14689;BME280;7432;48.728;9.154;2023-08-20T05:41:15;147158.28;;;21.97;96.01
14689;BME280;7432;48.728;9.154;2023-08-20T05:43:42;147193.69;;;22.12;95.12
14689;BME280;7432;48.728;9.154;2023-08-20T05:46:10;147232.75;;;22.28;94.10
14689;BME280;7432;48.728;9.154;2023-08-20T05:48:36;147259.59;;;22.39;93.46
14689;BME280;7432;48.728;9.154;2023-08-20T05:51:02;147284.00;;;22.49;93.14
14689;BME280;7432;48.728;9.154;2023-08-20T05:53:29;147299.91;;;22.56;92.78
14689;BME280;7432;48.728;9.154;2023-08-20T05:55:55;147323.13;;;22.65;92.70
14689;BME280;7432;48.728;9.154;2023-08-20T05:58:22;147351.22;;;22.77;92.26
14689;BME280;7432;48.728;9.154;2023-08-20T06:00:48;147382.97;;;22.90;91.55
14689;BME280;7432;48.728;9.154;2023-08-20T06:03:16;147415.94;;;23.03;90.37
14689;BME280;7432;48.728;9.154;2023-08-20T06:05:42;147444.03;;;23.15;89.59
14689;BME280;7432;48.728;9.154;2023-08-20T06:08:08;147511.28;;;23.43;88.79
14689;BME280;7432;48.728;9.154;2023-08-20T06:10:35;147646.88;;;23.99;87.42
14689;BME280;7432;48.728;9.154;2023-08-20T06:13:01;147760.63;;;24.46;84.70
14689;BME280;7432;48.728;9.154;2023-08-20T06:15:27;147826.66;;;24.73;83.59
14689;BME280;7432;48.728;9.154;2023-08-20T06:17:54;147919.63;;;25.11;82.09
14689;BME280;7432;48.728;9.154;2023-08-20T06:20:21;148092.19;;;25.82;80.82
14689;BME280;7432;48.728;9.154;2023-08-20T06:22:48;148387.31;;;27.04;74.20
14689;BME280;7432;48.728;9.154;2023-08-20T06:25:14;148663.03;;;28.17;69.60
14689;BME280;7432;48.728;9.154;2023-08-20T06:27:41;148938.97;;;29.31;65.82
14689;BME280;7432;48.728;9.154;2023-08-20T06:30:08;149100.91;;;29.98;63.33
14689;BME280;7432;48.728;9.154;2023-08-20T06:32:35;149301.00;;;30.80;60.64
14689;BME280;7432;48.728;9.154;2023-08-20T06:35:01;149520.84;;;31.70;56.98
14689;BME280;7432;48.728;9.154;2023-08-20T06:37:30;149637.63;;;32.18;55.77
14689;BME280;7432;48.728;9.154;2023-08-20T06:39:56;149933.84;;;33.39;52.50
14689;BME280;7432;48.728;9.154;2023-08-20T06:42:22;150134.38;;;34.22;51.00
14689;BME280;7432;48.728;9.154;2023-08-20T06:44:49;150358.41;;;35.14;48.03
14689;BME280;7432;48.728;9.154;2023-08-20T06:47:15;150546.72;;;35.91;45.62
14689;BME280;7432;48.728;9.154;2023-08-20T06:49:42;150716.75;;;36.60;45.44
14689;BME280;7432;48.728;9.154;2023-08-20T06:52:08;150880.59;;;37.27;43.57
14689;BME280;7432;48.728;9.154;2023-08-20T06:54:36;151095.09;;;38.15;41.59
14689;BME280;7432;48.728;9.154;2023-08-20T06:57:02;151236.91;;;38.73;41.17
14689;BME280;7432;48.728;9.154;2023-08-20T06:59:29;151190.06;;;38.54;39.84
14689;BME280;7432;48.728;9.154;2023-08-20T07:01:55;150942.25;;;37.53;42.47
14689;BME280;7432;48.728;9.154;2023-08-20T07:04:22;150584.97;;;36.06;44.80
14689;BME280;7432;48.728;9.154;2023-08-20T07:06:49;150618.22;;;36.20;44.75
14689;BME280;7432;48.728;9.154;2023-08-20T07:09:16;150648.97;;;36.33;43.69
14689;BME280;7432;48.728;9.154;2023-08-20T07:11:44;151124.72;;;38.27;41.61
14689;BME280;7432;48.728;9.154;2023-08-20T07:14:10;151409.63;;;39.44;38.15
14689;BME280;7432;48.728;9.154;2023-08-20T07:16:36;151419.53;;;39.48;37.39
14689;BME280;7432;48.728;9.154;2023-08-20T07:19:03;151355.38;;;39.22;38.16
14689;BME280;7432;48.728;9.154;2023-08-20T07:21:29;151002.63;;;37.77;40.66
14689;BME280;7432;48.728;9.154;2023-08-20T07:23:56;150672.38;;;36.42;43.30
14689;BME280;7432;48.728;9.154;2023-08-20T07:26:22;150384.22;;;35.24;45.60
14689;BME280;7432;48.728;9.154;2023-08-20T07:28:50;150197.13;;;34.47;47.19
14689;BME280;7432;48.728;9.154;2023-08-20T07:31:22;150024.91;;;33.77;48.92
14689;BME280;7432;48.728;9.154;2023-08-20T07:33:49;150050.72;;;33.87;49.68
14689;BME280;7432;48.728;9.154;2023-08-20T07:36:16;150347.28;;;35.09;46.22
14689;BME280;7432;48.728;9.154;2023-08-20T07:38:43;150186.03;;;34.43;47.18
14689;BME280;7432;48.728;9.154;2023-08-20T07:41:10;150172.50;;;34.37;48.13
14689;BME280;7432;48.728;9.154;2023-08-20T07:43:37;150183.59;;;34.42;47.95
14689;BME280;7432;48.728;9.154;2023-08-20T07:46:06;150133.13;;;34.21;48.58
14689;BME280;7432;48.728;9.154;2023-08-20T07:48:33;150038.44;;;33.82;48.93
14689;BME280;7432;48.728;9.154;2023-08-20T07:50:59;149799.81;;;32.84;51.09
14689;BME280;7432;48.728;9.154;2023-08-20T07:53:26;149830.59;;;32.97;52.00
14689;BME280;7432;48.728;9.154;2023-08-20T07:55:52;149754.38;;;32.66;51.77
14689;BME280;7432;48.728;9.154;2023-08-20T07:58:19;149633.91;;;32.16;53.04
14689;BME280;7432;48.728;9.154;2023-08-20T08:00:45;149643.75;;;32.20;53.50
14689;BME280;7432;48.728;9.154;2023-08-20T08:03:13;149708.88;;;32.47;53.67
14689;BME280;7432;48.728;9.154;2023-08-20T08:05:46;149713.75;;;32.49;53.62
14689;BME280;7432;48.728;9.154;2023-08-20T08:08:12;149863.81;;;33.11;52.57
14689;BME280;7432;48.728;9.154;2023-08-20T08:10:38;150155.28;;;34.30;49.48
14689;BME280;7432;48.728;9.154;2023-08-20T08:13:05;150476.59;;;35.62;45.74
14689;BME280;7432;48.728;9.154;2023-08-20T08:15:31;151056.91;;;38.00;42.97
14689;BME280;7432;48.728;9.154;2023-08-20T08:17:58;151707.13;;;40.65;37.55
14689;BME280;7432;48.728;9.154;2023-08-20T08:20:25;152073.94;;;42.15;34.65
14689;BME280;7432;48.728;9.154;2023-08-20T08:22:52;152249.38;;;42.87;33.43
14689;BME280;7432;48.728;9.154;2023-08-20T08:25:18;152086.28;;;42.20;33.60
14689;BME280;7432;48.728;9.154;2023-08-20T08:27:45;152054.13;;;42.07;33.94
14689;BME280;7432;48.728;9.154;2023-08-20T08:30:11;151972.63;;;41.74;34.62
14689;BME280;7432;48.728;9.154;2023-08-20T08:32:38;152313.66;;;43.13;32.90
14689;BME280;7432;48.728;9.154;2023-08-20T08:35:05;152239.47;;;42.83;32.29
14689;BME280;7432;48.728;9.154;2023-08-20T08:37:33;152585.66;;;44.24;31.27
14689;BME280;7432;48.728;9.154;2023-08-20T08:40:00;152720.47;;;44.79;30.15
14689;BME280;7432;48.728;9.154;2023-08-20T08:42:26;152854.09;;;45.33;29.00
14689;BME280;7432;48.728;9.154;2023-08-20T08:44:52;152911.00;;;45.57;29.53
14689;BME280;7432;48.728;9.154;2023-08-20T08:47:21;152755.13;;;44.93;29.95
14689;BME280;7432;48.728;9.154;2023-08-20T08:49:48;152844.22;;;45.29;29.30
14689;BME280;7432;48.728;9.154;2023-08-20T08:52:15;152856.59;;;45.34;29.54
14689;BME280;7432;48.728;9.154;2023-08-20T08:54:43;152986.53;;;45.87;29.35
14689;BME280;7432;48.728;9.154;2023-08-20T08:57:10;153026.16;;;46.04;28.71
14689;BME280;7432;48.728;9.154;2023-08-20T08:59:36;153274.94;;;47.05;27.12
14689;BME280;7432;48.728;9.154;2023-08-20T09:02:07;153419.84;;;47.64;27.07
14689;BME280;7432;48.728;9.154;2023-08-20T09:04:34;153286.06;;;47.10;26.18
14689;BME280;7432;48.728;9.154;2023-08-20T09:07:04;153194.47;;;46.72;27.07
14689;BME280;7432;48.728;9.154;2023-08-20T09:09:30;153205.63;;;46.77;27.39
14689;BME280;7432;48.728;9.154;2023-08-20T09:11:59;153343.03;;;47.33;26.31
14689;BME280;7432;48.728;9.154;2023-08-20T09:14:28;153354.19;;;47.37;26.13
14689;BME280;7432;48.728;9.154;2023-08-20T09:16:56;153427.28;;;47.67;26.29
14689;BME280;7432;48.728;9.154;2023-08-20T09:19:23;153564.75;;;48.23;25.01
14689;BME280;7432;48.728;9.154;2023-08-20T09:21:50;153457.00;;;47.79;26.20
14689;BME280;7432;48.728;9.154;2023-08-20T09:24:25;153359.13;;;47.39;25.30
14689;BME280;7432;48.728;9.154;2023-08-20T09:26:56;153494.16;;;47.94;25.43
14689;BME280;7432;48.728;9.154;2023-08-20T09:29:24;153484.25;;;47.90;26.04
14689;BME280;7432;48.728;9.154;2023-08-20T09:32:00;153434.72;;;47.70;26.64
14689;BME280;7432;48.728;9.154;2023-08-20T09:34:35;153281.13;;;47.08;26.39
14689;BME280;7432;48.728;9.154;2023-08-20T09:37:02;153043.44;;;46.11;27.16
14689;BME280;7432;48.728;9.154;2023-08-20T09:39:28;153136.28;;;46.48;26.33
14689;BME280;7432;48.728;9.154;2023-08-20T09:41:55;153162.25;;;46.59;26.55
14689;BME280;7432;48.728;9.154;2023-08-20T09:44:24;153011.25;;;45.98;26.25
14689;BME280;7432;48.728;9.154;2023-08-20T09:46:52;153112.78;;;46.39;26.01
14689;BME280;7432;48.728;9.154;2023-08-20T09:49:19;153088.03;;;46.29;25.92
14689;BME280;7432;48.728;9.154;2023-08-20T09:51:50;153116.47;;;46.40;25.34
14689;BME280;7432;48.728;9.154;2023-08-20T09:54:21;153343.03;;;47.33;24.92
14689;BME280;7432;48.728;9.154;2023-08-20T09:56:54;153478.06;;;47.88;24.59
14689;BME280;7432;48.728;9.154;2023-08-20T09:59:26;153435.97;;;47.71;24.89
14689;BME280;7432;48.728;9.154;2023-08-20T10:01:53;153282.38;;;47.08;25.23
14689;BME280;7432;48.728;9.154;2023-08-20T10:04:21;153011.25;;;45.98;26.64
14689;BME280;7432;48.728;9.154;2023-08-20T10:06:47;153194.47;;;46.72;25.55
14689;BME280;7432;48.728;9.154;2023-08-20T10:09:15;153283.59;;;47.09;25.95
14689;BME280;7432;48.728;9.154;2023-08-20T10:11:43;153423.53;;;47.66;23.96
14689;BME280;7432;48.728;9.154;2023-08-20T10:14:09;153183.28;;;46.68;25.67
14689;BME280;7432;48.728;9.154;2023-08-20T10:16:37;153110.31;;;46.38;25.62
14689;BME280;7432;48.728;9.154;2023-08-20T10:19:05;153094.19;;;46.31;25.60
14689;BME280;7432;48.728;9.154;2023-08-20T10:21:32;153376.50;;;47.46;24.81
14689;BME280;7432;48.728;9.154;2023-08-20T10:24:03;153512.72;;;48.02;24.20
14689;BME280;7432;48.728;9.154;2023-08-20T10:26:29;153544.91;;;48.15;24.40
14689;BME280;7432;48.728;9.154;2023-08-20T10:31:57;153409.97;;;47.60;24.06
14689;BME280;7432;48.728;9.154;2023-08-20T10:34:32;153312.09;;;47.20;24.72
14689;BME280;7432;48.728;9.154;2023-08-20T10:37:01;153276.16;;;47.05;24.97
14689;BME280;7432;48.728;9.154;2023-08-20T10:39:28;153324.47;;;47.25;25.07
14689;BME280;7432;48.728;9.154;2023-08-20T10:42:08;153404.97;;;47.58;24.61
14689;BME280;7432;48.728;9.154;2023-08-20T10:44:56;153116.47;;;46.40;25.54
14689;BME280;7432;48.728;9.154;2023-08-20T10:47:24;153047.19;;;46.12;25.64
14689;BME280;7432;48.728;9.154;2023-08-20T10:49:51;153258.84;;;46.98;25.17
14689;BME280;7432;48.728;9.154;2023-08-20T10:52:18;153095.41;;;46.32;25.35
14689;BME280;7432;48.728;9.154;2023-08-20T10:54:44;153325.72;;;47.26;24.49
14689;BME280;7432;48.728;9.154;2023-08-20T10:57:11;153309.63;;;47.19;24.76
14689;BME280;7432;48.728;9.154;2023-08-20T10:59:40;153393.84;;;47.53;24.44
14689;BME280;7432;48.728;9.154;2023-08-20T11:02:11;153371.50;;;47.44;24.13
14689;BME280;7432;48.728;9.154;2023-08-20T11:04:42;153201.94;;;46.75;25.21
14689;BME280;7432;48.728;9.154;2023-08-20T11:07:09;153188.28;;;46.70;25.73
14689;BME280;7432;48.728;9.154;2023-08-20T11:09:35;152990.22;;;45.89;25.97
14689;BME280;7432;48.728;9.154;2023-08-20T11:12:05;153008.75;;;45.97;26.46
14689;BME280;7432;48.728;9.154;2023-08-20T11:14:31;152927.09;;;45.63;26.62
14689;BME280;7432;48.728;9.154;2023-08-20T11:16:58;153048.38;;;46.13;26.15
14689;BME280;7432;48.728;9.154;2023-08-20T11:19:24;153044.69;;;46.11;26.42
14689;BME280;7432;48.728;9.154;2023-08-20T11:21:52;152865.25;;;45.38;26.63
14689;BME280;7432;48.728;9.154;2023-08-20T11:24:18;152704.41;;;44.72;27.27
14689;BME280;7432;48.728;9.154;2023-08-20T11:26:46;152777.41;;;45.02;27.44
14689;BME280;7432;48.728;9.154;2023-08-20T11:29:14;152473.16;;;43.78;28.41
14689;BME280;7432;48.728;9.154;2023-08-20T11:31:45;152542.38;;;44.06;27.88
14689;BME280;7432;48.728;9.154;2023-08-20T11:34:12;152347.00;;;43.27;28.41
14689;BME280;7432;48.728;9.154;2023-08-20T11:36:38;152260.50;;;42.91;29.78
14689;BME280;7432;48.728;9.154;2023-08-20T11:39:06;151978.81;;;41.76;31.00
14689;BME280;7432;48.728;9.154;2023-08-20T11:41:36;151794.78;;;41.01;31.52
14689;BME280;7432;48.728;9.154;2023-08-20T11:44:03;151445.44;;;39.58;33.90
14689;BME280;7432;48.728;9.154;2023-08-20T11:46:30;151234.44;;;38.72;34.88
14689;BME280;7432;48.728;9.154;2023-08-20T11:49:00;150944.75;;;37.54;36.33
14689;BME280;7432;48.728;9.154;2023-08-20T11:51:28;150811.66;;;36.99;37.13
14689;BME280;7432;48.728;9.154;2023-08-20T11:53:55;150650.22;;;36.33;38.77
14689;BME280;7432;48.728;9.154;2023-08-20T11:56:23;150547.97;;;35.91;39.16
14689;BME280;7432;48.728;9.154;2023-08-20T11:58:50;150344.88;;;35.08;40.29
14689;BME280;7432;48.728;9.154;2023-08-20T12:01:17;150170.06;;;34.36;42.23
14689;BME280;7432;48.728;9.154;2023-08-20T12:03:43;150168.81;;;34.36;42.53
14689;BME280;7432;48.728;9.154;2023-08-20T12:06:18;150152.81;;;34.29;42.50
14689;BME280;7432;48.728;9.154;2023-08-20T12:08:44;150098.75;;;34.07;43.20
14689;BME280;7432;48.728;9.154;2023-08-20T12:11:11;150141.75;;;34.25;42.39
14689;BME280;7432;48.728;9.154;2023-08-20T12:13:38;150103.66;;;34.09;42.85
14689;BME280;7432;48.728;9.154;2023-08-20T12:16:05;150059.31;;;33.91;43.89
14689;BME280;7432;48.728;9.154;2023-08-20T12:18:31;150015.06;;;33.73;43.53
14689;BME280;7432;48.728;9.154;2023-08-20T12:20:57;149972.00;;;33.55;43.72
14689;BME280;7432;48.728;9.154;2023-08-20T12:23:24;149960.91;;;33.51;43.96
14689;BME280;7432;48.728;9.154;2023-08-20T12:25:51;149972.00;;;33.55;44.59
14689;BME280;7432;48.728;9.154;2023-08-20T12:28:18;149965.81;;;33.53;44.11
14689;BME280;7432;48.728;9.154;2023-08-20T12:30:46;149943.72;;;33.44;44.83
14689;BME280;7432;48.728;9.154;2023-08-20T12:33:12;149898.22;;;33.25;45.38
14689;BME280;7432;48.728;9.154;2023-08-20T12:35:38;149909.28;;;33.29;44.83
14689;BME280;7432;48.728;9.154;2023-08-20T12:38:05;149937.56;;;33.41;44.96
14689;BME280;7432;48.728;9.154;2023-08-20T12:40:32;149882.25;;;33.18;45.22
14689;BME280;7432;48.728;9.154;2023-08-20T12:42:59;149932.63;;;33.39;45.37
14689;BME280;7432;48.728;9.154;2023-08-20T12:45:26;149956.00;;;33.49;45.33
14689;BME280;7432;48.728;9.154;2023-08-20T12:47:53;149996.63;;;33.65;44.73
14689;BME280;7432;48.728;9.154;2023-08-20T12:50:20;149964.63;;;33.52;44.69
14689;BME280;7432;48.728;9.154;2023-08-20T12:52:46;149924.03;;;33.35;45.97
14689;BME280;7432;48.728;9.154;2023-08-20T12:55:14;149883.47;;;33.19;45.89
14689;BME280;7432;48.728;9.154;2023-08-20T12:57:52;149897.00;;;33.24;44.92
14689;BME280;7432;48.728;9.154;2023-08-20T13:00:19;149862.56;;;33.10;45.43
14689;BME280;7432;48.728;9.154;2023-08-20T13:02:46;149793.69;;;32.82;46.45
14689;BME280;7432;48.728;9.154;2023-08-20T13:05:15;149734.72;;;32.58;46.13